createdAt,value
2023-05-10T00:02:00.435Z,3.38
2023-05-10T00:04:34.452Z,3.55
2023-05-10T00:07:04.203Z,3.57
2023-05-10T00:09:32.353Z,3.49
2023-05-10T00:12:01.161Z,3.58
2023-05-10T00:14:29.472Z,3.30
2023-05-10T00:16:57.990Z,3.27
2023-05-10T00:19:28.258Z,3.17
2023-05-10T00:21:56.654Z,2.98
2023-05-10T00:24:26.401Z,2.96
2023-05-10T00:26:57.089Z,3.25
2023-05-10T00:29:27.826Z,2.94
2023-05-10T00:32:04.394Z,2.86
2023-05-10T00:34:35.985Z,2.89
2023-05-10T00:37:10.119Z,2.74
2023-05-10T00:39:39.976Z,2.95
2023-05-10T00:42:08.354Z,3.21
2023-05-10T00:44:36.866Z,2.79
2023-05-10T00:47:05.539Z,0.57
2023-05-10T00:49:34.012Z,0.43
2023-05-10T00:52:03.118Z,0.44
2023-05-10T00:54:32.347Z,1.27
2023-05-10T00:57:07.862Z,0.56
2023-05-10T00:59:41.915Z,1.04
2023-05-10T01:02:10.323Z,1.02
2023-05-10T01:04:39.912Z,1.16
2023-05-10T01:07:20.193Z,0.76
2023-05-10T01:09:53.237Z,0.83
2023-05-10T01:12:23.423Z,0.91
2023-05-10T01:14:52.056Z,1.12
2023-05-10T01:17:22.082Z,0.90
2023-05-10T01:19:51.058Z,0.90
2023-05-10T01:22:53.768Z,1.22
2023-05-10T01:25:51.157Z,1.05
2023-05-10T01:28:53.778Z,0.83
2023-05-10T01:31:41.494Z,0.60
2023-05-10T01:34:15.309Z,2.88
2023-05-10T01:36:53.401Z,0.74
2023-05-10T01:39:34.865Z,2.02
2023-05-10T01:42:10.365Z,1.63
2023-05-10T01:44:46.302Z,1.39
2023-05-10T01:47:19.375Z,1.07
2023-05-10T01:49:54.180Z,1.01
2023-05-10T01:52:29.143Z,1.02
2023-05-10T01:55:04.165Z,1.49
2023-05-10T01:57:37.160Z,0.64
2023-05-10T02:00:08.999Z,0.81
2023-05-10T02:02:43.129Z,0.95
2023-05-10T02:05:16.843Z,0.61
2023-05-10T02:07:46.499Z,0.41
2023-05-10T02:10:18.082Z,0.23
2023-05-10T02:12:50.705Z,0.18
2023-05-10T02:15:23.256Z,0.27
2023-05-10T02:17:52.094Z,0.19
2023-05-10T02:20:24.452Z,0.12
2023-05-10T02:22:56.304Z,0.22
2023-05-10T02:25:26.661Z,0.43
2023-05-10T02:27:58.062Z,1.09
2023-05-10T02:30:27.402Z,0.55
2023-05-10T02:32:59.855Z,0.20
2023-05-10T02:35:30.982Z,0.52
2023-05-10T02:38:01.298Z,0.27
2023-05-10T02:40:30.729Z,0.24
2023-05-10T02:43:03.573Z,0.24
2023-05-10T02:45:34.301Z,0.24
2023-05-10T02:48:02.473Z,0.33
2023-05-10T02:50:35.590Z,0.28
2023-05-10T02:53:11.137Z,0.22
2023-05-10T02:55:42.609Z,0.18
2023-05-10T02:58:10.596Z,0.12
2023-05-10T03:00:41.168Z,0.05
2023-05-10T03:03:09.431Z,0.16
2023-05-10T03:05:38.765Z,0.12
2023-05-10T03:08:07.324Z,0.09
2023-05-10T03:10:43.818Z,0.05
2023-05-10T03:13:24.116Z,0.13
2023-05-10T03:16:03.873Z,0.07
2023-05-10T03:18:46.344Z,0.06
2023-05-10T03:21:20.026Z,0.16
2023-05-10T03:23:58.805Z,0.14
2023-05-10T03:26:29.617Z,0.42
2023-05-10T03:28:59.929Z,0.37
2023-05-10T03:31:28.167Z,0.44
2023-05-10T03:33:58.332Z,0.40
2023-05-10T03:36:27.641Z,0.43
2023-05-10T03:38:55.598Z,0.42
2023-05-10T03:41:23.424Z,0.36
2023-05-10T03:43:51.290Z,0.39
2023-05-10T03:46:19.158Z,0.40
2023-05-10T03:48:47.101Z,0.33
2023-05-10T03:51:14.970Z,0.47
2023-05-10T03:53:44.141Z,0.50
2023-05-10T03:56:11.953Z,0.53
2023-05-10T03:58:39.754Z,0.50
2023-05-10T04:01:07.614Z,0.37
2023-05-10T04:03:36.590Z,0.39
2023-05-10T04:06:04.856Z,0.55
2023-05-10T04:08:33.226Z,0.47
2023-05-10T04:11:09.443Z,0.54
2023-05-10T04:13:37.598Z,0.58
2023-05-10T04:16:06.283Z,0.68
2023-05-10T04:18:34.103Z,0.72
2023-05-10T04:21:01.912Z,1.02
2023-05-10T04:23:29.928Z,1.13
2023-05-10T04:26:02.728Z,1.09
2023-05-10T04:28:32.003Z,1.20
2023-05-10T04:31:03.740Z,1.44
2023-05-10T04:33:31.971Z,1.37
2023-05-10T04:36:00.075Z,1.78
2023-05-10T04:38:27.995Z,1.93
2023-05-10T04:40:56.213Z,2.16
2023-05-10T04:43:24.016Z,2.31
2023-05-10T04:45:53.280Z,2.55
2023-05-10T04:48:21.074Z,2.51
2023-05-10T04:50:48.852Z,2.58
2023-05-10T04:53:16.633Z,2.58
2023-05-10T04:55:44.536Z,2.75
2023-05-10T04:58:12.287Z,2.69
2023-05-10T05:00:40.202Z,2.55
2023-05-10T05:03:09.615Z,2.53
2023-05-10T05:05:37.552Z,2.55
2023-05-10T05:08:05.936Z,2.78
2023-05-10T05:10:33.997Z,2.62
2023-05-10T05:13:01.978Z,2.50
2023-05-10T05:15:30.976Z,2.60
2023-05-10T05:17:58.920Z,2.55
2023-05-10T05:20:28.416Z,2.60
2023-05-10T05:22:56.232Z,2.61
2023-05-10T05:25:24.153Z,2.44
2023-05-10T05:27:51.914Z,2.27
2023-05-10T05:30:19.796Z,2.50
2023-05-10T05:32:48.032Z,2.23
2023-05-10T05:35:16.304Z,2.21
2023-05-10T05:37:45.662Z,2.34
2023-05-10T05:40:15.048Z,2.26
2023-05-10T05:42:42.927Z,2.24
2023-05-10T05:45:14.212Z,2.25
2023-05-10T05:47:42.409Z,2.59
2023-05-10T05:50:13.171Z,2.71
2023-05-10T05:52:41.026Z,2.58
2023-05-10T05:55:10.655Z,2.70
2023-05-10T05:57:41.476Z,2.66
2023-05-10T06:00:13.081Z,2.74
2023-05-10T06:02:41.196Z,2.92
2023-05-10T06:05:10.061Z,3.21
2023-05-10T06:07:37.902Z,3.61
2023-05-10T06:10:06.817Z,3.06
2023-05-10T06:12:36.005Z,3.10
2023-05-10T06:15:04.254Z,3.31
2023-05-10T06:17:32.162Z,3.54
2023-05-10T06:19:59.974Z,3.68
2023-05-10T06:22:27.979Z,3.42
2023-05-10T06:24:55.760Z,3.74
2023-05-10T06:27:24.110Z,3.65
2023-05-10T06:30:02.090Z,3.49
2023-05-10T06:32:37.399Z,3.40
2023-05-10T06:35:05.710Z,3.26
2023-05-10T06:37:33.535Z,3.09
2023-05-10T06:40:01.497Z,3.05
2023-05-10T06:42:29.378Z,3.24
2023-05-10T06:44:58.555Z,3.19
2023-05-10T06:47:26.845Z,3.40
2023-05-10T06:49:54.715Z,3.20
2023-05-10T06:52:22.577Z,3.37
2023-05-10T06:54:50.783Z,3.55
2023-05-10T06:57:30.539Z,3.18
2023-05-10T07:00:01.897Z,3.14
2023-05-10T07:02:30.206Z,2.83
2023-05-10T07:05:00.894Z,2.82
2023-05-10T07:07:30.813Z,3.02
2023-05-10T07:09:58.768Z,2.92
2023-05-10T07:12:27.063Z,3.12
2023-05-10T07:14:55.418Z,3.98
2023-05-10T07:17:24.669Z,4.50
2023-05-10T07:19:52.691Z,5.52
2023-05-10T07:22:20.551Z,5.08
2023-05-10T07:24:48.375Z,4.54
2023-05-10T07:27:16.210Z,3.69
2023-05-10T07:29:44.038Z,3.07
2023-05-10T07:32:11.912Z,3.66
2023-05-10T07:34:43.582Z,4.05
2023-05-10T07:37:11.403Z,3.79
2023-05-10T07:39:42.389Z,4.07
2023-05-10T07:42:10.381Z,3.80
2023-05-10T07:44:38.226Z,3.96
2023-05-10T07:47:06.201Z,3.86
2023-05-10T07:49:34.012Z,3.32
2023-05-10T07:52:04.815Z,3.15
2023-05-10T07:54:32.815Z,3.08
2023-05-10T07:57:00.744Z,3.06
2023-05-10T07:59:28.850Z,3.16
2023-05-10T08:01:57.151Z,3.26
2023-05-10T08:04:25.260Z,3.00
2023-05-10T08:06:53.169Z,2.89
2023-05-10T08:09:25.100Z,2.97
2023-05-10T08:11:53.209Z,2.82
2023-05-10T08:14:30.132Z,2.76
2023-05-10T08:16:58.428Z,2.78
2023-05-10T08:19:26.286Z,2.69
2023-05-10T08:21:56.458Z,2.99
2023-05-10T08:24:25.929Z,3.09
2023-05-10T08:26:56.053Z,3.04
2023-05-10T08:29:24.013Z,3.15
2023-05-10T08:31:55.822Z,2.94
2023-05-10T08:34:23.765Z,3.47
2023-05-10T08:36:51.937Z,3.22
2023-05-10T08:39:29.745Z,3.42
2023-05-10T08:42:04.647Z,3.19
2023-05-10T08:44:36.196Z,3.45
2023-05-10T08:47:08.474Z,3.11
2023-05-10T08:49:37.119Z,3.69
2023-05-10T08:52:06.464Z,2.90
2023-05-10T08:54:38.430Z,2.13
2023-05-10T08:57:08.048Z,2.06
2023-05-10T08:59:36.309Z,1.86
2023-05-10T09:02:06.797Z,1.81
2023-05-10T09:04:35.023Z,2.06
2023-05-10T09:07:03.184Z,1.98
2023-05-10T09:09:31.343Z,1.73
2023-05-10T09:11:59.238Z,1.66
2023-05-10T09:14:29.021Z,1.92
2023-05-10T09:16:58.532Z,2.07
2023-05-10T09:19:28.822Z,2.35
2023-05-10T09:21:56.781Z,1.95
2023-05-10T09:24:28.825Z,1.96
2023-05-10T09:26:59.382Z,2.25
2023-05-10T09:29:28.600Z,2.17
2023-05-10T09:31:56.548Z,2.13
2023-05-10T10:24:46.575Z,2.00
2023-05-10T10:27:25.708Z,1.80
2023-05-10T10:30:06.010Z,1.81
2023-05-10T10:32:52.222Z,1.86
2023-05-10T10:35:20.486Z,2.07
2023-05-10T10:37:52.083Z,2.19
2023-05-10T10:40:30.441Z,2.24
2023-05-10T10:43:00.522Z,2.02
2023-05-10T10:45:28.465Z,1.89
2023-05-10T10:48:24.138Z,1.85
2023-05-10T10:51:02.324Z,1.60
2023-05-10T10:53:30.492Z,1.64
2023-05-10T10:56:10.291Z,1.92
2023-05-10T10:58:40.334Z,1.91
2023-05-10T11:01:14.153Z,1.64
2023-05-10T11:03:44.801Z,1.69
2023-05-10T11:06:12.744Z,1.88
2023-05-10T11:08:45.952Z,1.85
2023-05-10T11:11:17.365Z,1.96
2023-05-10T11:13:50.815Z,1.68
2023-05-10T11:16:21.604Z,1.86
2023-05-10T11:19:12.486Z,2.03
2023-05-10T11:21:51.852Z,2.23
2023-05-10T11:24:21.943Z,1.96
2023-05-10T11:26:53.333Z,2.04
2023-05-10T11:29:30.215Z,2.16
2023-05-10T11:31:59.995Z,2.23
2023-05-10T11:34:30.571Z,2.58
2023-05-10T11:36:59.410Z,2.56
2023-05-10T11:39:29.665Z,2.21
2023-05-10T11:42:00.334Z,2.25
2023-05-10T11:44:32.435Z,1.86
2023-05-10T11:47:04.540Z,1.85
2023-05-10T11:49:33.014Z,1.73
2023-05-10T11:52:08.376Z,1.58
2023-05-10T11:54:36.979Z,1.59
2023-05-10T11:57:06.756Z,1.24
2023-05-10T11:59:34.628Z,1.01
2023-05-10T12:02:04.228Z,1.25
2023-05-10T12:04:33.051Z,1.11
2023-05-10T12:07:01.411Z,1.16
2023-05-10T12:09:42.724Z,1.34
2023-05-10T12:12:18.394Z,1.57
2023-05-10T12:14:46.271Z,1.60
2023-05-10T12:17:14.504Z,1.71
2023-05-10T12:19:44.759Z,1.76
2023-05-10T12:22:12.712Z,1.93
2023-05-10T12:24:40.616Z,2.17
2023-05-10T12:27:10.754Z,2.16
2023-05-10T12:29:45.840Z,2.00
2023-05-10T12:32:13.830Z,1.08
2023-05-10T12:34:41.754Z,0.89
2023-05-10T12:37:09.688Z,0.97
2023-05-10T12:39:42.100Z,0.81
2023-05-10T12:42:13.613Z,0.88
2023-05-10T12:44:42.927Z,1.02
2023-05-10T12:47:13.637Z,1.11
2023-05-10T12:49:41.579Z,1.15
2023-05-10T12:52:09.437Z,1.27
2023-05-10T12:54:37.348Z,1.45
2023-05-10T12:57:05.344Z,1.44
2023-05-10T12:59:33.934Z,1.57
2023-05-10T13:02:04.085Z,1.80
2023-05-10T13:04:31.997Z,1.97
2023-05-10T13:07:00.199Z,2.03
2023-05-10T13:09:30.364Z,2.10
2023-05-10T13:11:58.345Z,2.42
2023-05-10T13:14:26.744Z,2.48
2023-05-10T13:16:54.862Z,2.24
2023-05-10T13:19:24.223Z,2.10
2023-05-10T13:21:52.649Z,2.16
2023-05-10T13:24:20.576Z,2.52
2023-05-10T13:26:48.489Z,2.60
2023-05-10T13:29:20.176Z,2.55
2023-05-10T13:31:48.223Z,2.29
2023-05-10T13:34:16.130Z,2.68
2023-05-10T13:36:45.985Z,2.61
2023-05-10T13:39:13.912Z,2.98
2023-05-10T13:41:42.063Z,2.81
2023-05-10T13:44:12.275Z,2.99
2023-05-10T13:46:40.293Z,3.24
2023-05-10T13:49:08.328Z,2.74
2023-05-10T13:51:37.081Z,2.53
2023-05-10T13:54:06.401Z,2.31
2023-05-10T13:56:34.420Z,2.27
2023-05-10T13:59:02.949Z,2.90
2023-05-10T14:01:30.908Z,3.58
2023-05-10T14:03:58.916Z,2.96
2023-05-10T14:06:27.999Z,2.64
2023-05-10T14:08:56.262Z,2.49
2023-05-10T14:11:25.780Z,1.91
2023-05-10T14:13:53.686Z,1.77
2023-05-10T14:16:21.759Z,1.85
2023-05-10T14:18:50.185Z,3.89
2023-05-10T14:21:18.171Z,5.19
2023-05-10T14:23:46.107Z,2.10
2023-05-10T14:26:13.961Z,1.27
2023-05-10T14:28:43.299Z,1.32
2023-05-10T14:31:11.255Z,1.28
2023-05-10T14:33:39.181Z,1.33
2023-05-10T14:36:07.830Z,1.36
2023-05-10T14:38:35.790Z,1.45
2023-05-10T14:41:03.672Z,1.66
2023-05-10T14:43:32.060Z,1.68
2023-05-10T14:46:01.418Z,1.74
2023-05-10T14:48:29.369Z,1.43
2023-05-10T14:50:57.226Z,1.25
2023-05-10T14:53:25.157Z,1.39
2023-05-10T14:55:53.321Z,1.64
2023-05-10T14:58:21.196Z,1.51
2023-05-10T15:00:52.018Z,1.96
2023-05-10T15:03:22.384Z,1.59
2023-05-10T15:05:50.740Z,1.73
2023-05-10T15:08:18.598Z,1.62
2023-05-10T15:10:46.489Z,1.52
2023-05-10T15:13:14.384Z,1.49
2023-05-10T15:15:42.459Z,1.45
2023-05-10T15:18:10.983Z,1.57
2023-05-10T15:20:40.486Z,1.55
2023-05-10T15:23:08.358Z,1.65
2023-05-10T15:25:39.575Z,1.69
2023-05-10T15:28:09.872Z,1.59
2023-05-10T15:30:37.794Z,1.42
2023-05-10T15:33:05.750Z,1.82
2023-05-10T15:35:34.377Z,1.98
2023-05-10T15:38:03.558Z,2.12
2023-05-10T15:40:31.485Z,1.81
2023-05-10T15:42:59.458Z,1.85
2023-05-10T15:45:30.423Z,1.77
2023-05-10T15:47:58.440Z,1.97
2023-05-10T15:50:26.343Z,2.47
2023-05-10T15:52:54.242Z,2.35
2023-05-10T15:55:23.445Z,3.59
2023-05-10T15:57:51.381Z,3.69
2023-05-10T16:00:19.812Z,2.80
2023-05-10T16:02:47.984Z,4.51
2023-05-10T16:05:17.009Z,6.16
2023-05-10T16:07:45.387Z,4.79
2023-05-10T16:10:13.290Z,3.09
2023-05-10T16:12:42.632Z,3.64
2023-05-10T16:15:11.432Z,2.69
2023-05-10T16:17:39.485Z,2.89
2023-05-10T16:20:08.764Z,2.66
2023-05-10T16:22:36.892Z,3.07
2023-05-10T16:25:05.468Z,2.55
2023-05-10T16:27:33.898Z,2.49
2023-05-10T16:30:03.241Z,2.47
2023-05-10T16:32:33.892Z,2.40
2023-05-10T16:35:01.958Z,2.41
2023-05-10T16:37:29.983Z,2.28
2023-05-10T16:39:57.833Z,2.24
2023-05-10T16:42:26.136Z,3.74
2023-05-10T16:44:55.020Z,2.65
2023-05-10T16:47:26.735Z,2.41
2023-05-10T16:49:54.856Z,2.63
2023-05-10T16:52:23.788Z,2.53
2023-05-10T16:54:51.665Z,2.59
2023-05-10T16:57:19.505Z,2.48
2023-05-10T16:59:47.343Z,2.48
2023-05-10T17:02:15.677Z,2.53
2023-05-10T17:04:45.050Z,2.39
2023-05-10T17:07:13.257Z,2.80
2023-05-10T17:09:41.839Z,2.56
2023-05-10T17:12:09.792Z,2.58
2023-05-10T17:14:38.602Z,2.78
2023-05-10T17:17:06.815Z,2.45
2023-05-10T17:19:35.082Z,2.70
2023-05-10T17:22:04.478Z,2.90
2023-05-10T17:24:33.050Z,3.09
2023-05-10T17:27:03.532Z,2.63
2023-05-10T17:29:32.177Z,2.72
2023-05-10T17:32:00.713Z,2.66
2023-05-10T17:34:28.836Z,2.62
2023-05-10T17:36:57.585Z,2.48
2023-05-10T17:39:26.959Z,2.58
2023-05-10T17:41:54.911Z,2.64
2023-05-10T17:44:22.870Z,2.74
2023-05-10T17:46:50.739Z,2.96
2023-05-10T17:49:18.706Z,3.16
2023-05-10T17:51:48.060Z,3.44
2023-05-10T17:54:16.606Z,3.16
2023-05-10T17:56:46.334Z,2.79
2023-05-10T17:59:14.256Z,1.33
2023-05-10T18:01:42.558Z,0.32
2023-05-10T18:04:10.450Z,0.29
2023-05-10T18:06:39.120Z,0.89
2023-05-10T18:09:07.454Z,2.90
2023-05-10T18:11:36.448Z,2.91
2023-05-10T18:14:05.773Z,3.57
2023-05-10T18:16:33.718Z,3.42
2023-05-10T18:19:01.774Z,2.66
2023-05-10T18:21:29.750Z,1.43
2023-05-10T18:23:57.737Z,1.47
2023-05-10T18:26:26.074Z,1.75
2023-05-10T18:28:53.977Z,1.80
2023-05-10T18:31:23.766Z,1.78
2023-05-10T18:33:51.813Z,0.98
2023-05-10T18:36:19.791Z,0.67
2023-05-10T18:38:47.857Z,0.70
2023-05-10T18:41:16.187Z,1.03
2023-05-10T18:43:44.350Z,0.95
2023-05-10T18:46:12.304Z,1.31
2023-05-10T18:48:41.830Z,1.40
2023-05-10T18:51:10.403Z,1.02
2023-05-10T18:53:38.515Z,0.90
2023-05-10T18:56:07.252Z,0.82
2023-05-10T18:58:36.058Z,0.73
2023-05-10T19:01:04.042Z,1.01
2023-05-10T19:03:31.989Z,0.68
2023-05-10T19:06:01.362Z,0.72
2023-05-10T19:08:29.631Z,0.77
2023-05-10T19:10:57.663Z,0.77
2023-05-10T19:13:27.619Z,0.78
2023-05-10T19:16:06.689Z,0.58
2023-05-10T19:18:35.142Z,0.47
2023-05-10T19:21:09.394Z,0.46
2023-05-10T19:23:39.725Z,0.48
2023-05-10T19:26:08.882Z,0.35
2023-05-10T19:28:37.810Z,0.45
2023-05-10T19:31:06.269Z,0.50
2023-05-10T19:33:34.334Z,0.37
2023-05-10T19:36:02.342Z,0.33
2023-05-10T19:38:31.811Z,0.48
2023-05-10T19:41:00.111Z,1.58
2023-05-10T19:43:31.445Z,1.38
2023-05-10T19:46:03.034Z,1.80
2023-05-10T19:48:32.122Z,1.79
2023-05-10T19:51:02.363Z,1.79
2023-05-10T19:53:32.465Z,1.79
2023-05-10T19:56:05.375Z,1.93
2023-05-10T19:58:33.706Z,1.62
2023-05-10T20:01:02.275Z,1.02
2023-05-10T20:03:30.555Z,0.91
2023-05-10T20:05:58.593Z,1.26
2023-05-10T20:08:26.700Z,1.14
2023-05-10T20:10:57.843Z,1.19
2023-05-10T20:13:25.929Z,1.27
2023-05-10T20:15:56.880Z,1.28
2023-05-10T20:18:25.122Z,1.21
2023-05-10T20:20:56.133Z,0.95
2023-05-10T20:23:24.388Z,0.83
2023-05-10T20:25:52.870Z,0.49
2023-05-10T20:28:25.346Z,0.55
2023-05-10T20:30:55.645Z,0.51
2023-05-10T20:33:23.888Z,0.70
2023-05-10T20:35:52.504Z,0.59
2023-05-10T20:38:21.400Z,0.97
2023-05-10T20:40:49.550Z,2.42
2023-05-10T20:43:18.820Z,2.00
2023-05-10T20:45:48.163Z,0.46
2023-05-10T20:48:16.795Z,0.48
2023-05-10T20:50:44.760Z,0.50
2023-05-10T20:53:14.418Z,0.47
2023-05-10T20:55:42.371Z,0.49
2023-05-10T20:58:10.318Z,0.51
2023-05-10T21:00:38.271Z,0.66
2023-05-10T21:03:07.660Z,0.56
2023-05-10T21:05:36.155Z,0.44
2023-05-10T21:08:04.067Z,0.90
2023-05-10T21:10:31.977Z,2.11
2023-05-10T21:12:59.905Z,2.36
2023-05-10T21:15:27.826Z,2.23
2023-05-10T21:17:55.819Z,2.16
2023-05-10T21:20:25.269Z,2.54
2023-05-10T21:22:53.273Z,3.74
2023-05-10T21:25:21.166Z,2.35
2023-05-10T21:27:49.095Z,2.70
2023-05-10T21:30:17.289Z,2.97
2023-05-10T21:32:45.391Z,2.72
2023-05-10T21:35:13.262Z,2.89
2023-05-10T21:37:42.694Z,2.83
2023-05-10T21:40:11.882Z,3.49
2023-05-10T21:42:39.696Z,3.38
2023-05-10T21:45:08.554Z,3.42
2023-05-10T21:47:36.515Z,3.93
2023-05-10T21:50:04.499Z,4.05
2023-05-10T21:52:32.384Z,3.84
2023-05-10T21:55:01.551Z,3.87
2023-05-10T21:57:29.398Z,3.85
2023-05-10T21:59:57.325Z,3.67
2023-05-10T22:02:25.507Z,3.56
2023-05-10T22:04:53.416Z,3.23
2023-05-10T22:07:21.235Z,3.28
2023-05-10T22:09:49.081Z,3.64
2023-05-10T22:12:18.612Z,3.09
2023-05-10T22:14:47.495Z,3.71
2023-05-10T22:17:18.121Z,3.57
2023-05-10T22:19:45.996Z,3.98
2023-05-10T22:22:13.937Z,3.93
2023-05-10T22:24:41.792Z,3.88
2023-05-10T22:27:09.759Z,3.66
2023-05-10T22:29:39.056Z,3.44
2023-05-10T22:32:06.947Z,3.41
2023-05-10T22:34:35.471Z,3.45
2023-05-10T22:37:04.108Z,4.02
2023-05-10T22:39:31.918Z,4.61
2023-05-10T22:41:59.756Z,4.41
2023-05-10T22:44:27.706Z,1.95
2023-05-10T22:46:56.955Z,2.18
2023-05-10T22:49:24.798Z,1.68
2023-05-10T22:51:52.701Z,1.68
2023-05-10T22:54:20.678Z,1.71
2023-05-10T22:56:48.632Z,1.74
2023-05-10T22:59:16.708Z,2.19
2023-05-10T23:01:44.698Z,2.15
2023-05-10T23:04:14.038Z,2.18
2023-05-10T23:06:42.374Z,2.28
2023-05-10T23:09:10.360Z,2.55
2023-05-10T23:11:38.225Z,3.02
2023-05-10T23:14:06.230Z,3.35
2023-05-10T23:16:34.288Z,3.34
2023-05-10T23:19:02.299Z,3.71
2023-05-10T23:21:32.287Z,3.18
2023-05-10T23:24:00.677Z,3.21
2023-05-10T23:26:28.705Z,3.25
2023-05-10T23:28:56.832Z,3.13
2023-05-10T23:31:24.837Z,2.98
2023-05-10T23:33:52.808Z,2.90
2023-05-10T23:36:20.739Z,2.16
2023-05-10T23:38:50.070Z,1.89
2023-05-10T23:41:18.027Z,1.44
2023-05-10T23:43:45.940Z,1.66
2023-05-10T23:46:13.908Z,1.36
2023-05-10T23:48:41.857Z,1.20
2023-05-10T23:51:09.822Z,1.29
2023-05-10T23:53:37.797Z,1.43
2023-05-10T23:56:07.477Z,1.54
2023-05-10T23:58:35.419Z,1.75
